sensor_id;sensor_type;location;lat;lon;timestamp;temperature;humidity
19348;DHT22;9810;52.480;9.806;2023-08-08T00:01:45;13.10;99.90
19348;DHT22;9810;52.480;9.806;2023-08-08T00:04:13;13.20;99.90
19348;DHT22;9810;52.480;9.806;2023-08-08T00:06:40;13.30;99.90
19348;DHT22;9810;52.480;9.806;2023-08-08T00:09:07;13.30;99.90
19348;DHT22;9810;52.480;9.806;2023-08-08T00:11:34;13.30;99.90
19348;DHT22;9810;52.480;9.806;2023-08-08T00:14:01;13.30;99.90
19348;DHT22;9810;52.480;9.806;2023-08-08T00:16:28;13.10;99.90
19348;DHT22;9810;52.480;9.806;2023-08-08T00:18:55;13.20;99.90
19348;DHT22;9810;52.480;9.806;2023-08-08T00:21:23;13.20;99.90
19348;DHT22;9810;52.480;9.806;2023-08-08T00:23:50;13.30;99.90
19348;DHT22;9810;52.480;9.806;2023-08-08T00:26:17;13.20;99.90
19348;DHT22;9810;52.480;9.806;2023-08-08T00:28:44;13.30;99.90
19348;DHT22;9810;52.480;9.806;2023-08-08T00:31:11;13.20;99.90
19348;DHT22;9810;52.480;9.806;2023-08-08T00:33:38;13.00;99.90
19348;DHT22;9810;52.480;9.806;2023-08-08T00:36:05;13.00;99.90
19348;DHT22;9810;52.480;9.806;2023-08-08T00:38:33;13.10;99.90
19348;DHT22;9810;52.480;9.806;2023-08-08T00:41:00;13.10;99.90
19348;DHT22;9810;52.480;9.806;2023-08-08T00:43:27;13.20;99.90
19348;DHT22;9810;52.480;9.806;2023-08-08T00:45:54;13.10;99.90
19348;DHT22;9810;52.480;9.806;2023-08-08T00:48:21;13.10;99.90
19348;DHT22;9810;52.480;9.806;2023-08-08T00:50:48;13.00;99.90
19348;DHT22;9810;52.480;9.806;2023-08-08T00:53:17;13.00;99.90
19348;DHT22;9810;52.480;9.806;2023-08-08T00:55:46;13.20;99.90
19348;DHT22;9810;52.480;9.806;2023-08-08T00:58:13;13.10;99.90
19348;DHT22;9810;52.480;9.806;2023-08-08T01:00:42;13.10;99.90
19348;DHT22;9810;52.480;9.806;2023-08-08T01:03:09;13.20;99.90
19348;DHT22;9810;52.480;9.806;2023-08-08T01:05:41;13.00;99.90
19348;DHT22;9810;52.480;9.806;2023-08-08T01:08:09;13.20;99.90
19348;DHT22;9810;52.480;9.806;2023-08-08T01:10:39;13.20;99.90
19348;DHT22;9810;52.480;9.806;2023-08-08T01:13:10;13.20;99.90
19348;DHT22;9810;52.480;9.806;2023-08-08T01:15:39;13.10;99.90
19348;DHT22;9810;52.480;9.806;2023-08-08T01:18:08;13.00;99.90
19348;DHT22;9810;52.480;9.806;2023-08-08T01:20:36;12.90;99.90
19348;DHT22;9810;52.480;9.806;2023-08-08T01:23:09;13.00;99.90
19348;DHT22;9810;52.480;9.806;2023-08-08T01:25:40;13.10;99.90
19348;DHT22;9810;52.480;9.806;2023-08-08T01:28:07;13.20;99.90
19348;DHT22;9810;52.480;9.806;2023-08-08T01:30:34;13.20;99.90
19348;DHT22;9810;52.480;9.806;2023-08-08T01:33:02;13.10;99.90
19348;DHT22;9810;52.480;9.806;2023-08-08T01:35:31;13.10;99.90
19348;DHT22;9810;52.480;9.806;2023-08-08T01:38:03;13.20;99.90
19348;DHT22;9810;52.480;9.806;2023-08-08T01:40:32;13.20;99.90
19348;DHT22;9810;52.480;9.806;2023-08-08T01:43:02;13.10;99.90
19348;DHT22;9810;52.480;9.806;2023-08-08T01:45:30;13.00;99.90
19348;DHT22;9810;52.480;9.806;2023-08-08T01:47:57;13.10;99.90
19348;DHT22;9810;52.480;9.806;2023-08-08T01:50:24;13.10;99.90
19348;DHT22;9810;52.480;9.806;2023-08-08T01:52:51;13.20;99.90
19348;DHT22;9810;52.480;9.806;2023-08-08T01:55:18;13.30;99.90
19348;DHT22;9810;52.480;9.806;2023-08-08T01:57:45;13.20;99.90
19348;DHT22;9810;52.480;9.806;2023-08-08T02:00:14;13.30;99.90
19348;DHT22;9810;52.480;9.806;2023-08-08T02:02:41;13.10;99.90
19348;DHT22;9810;52.480;9.806;2023-08-08T02:05:08;13.20;99.90
19348;DHT22;9810;52.480;9.806;2023-08-08T02:07:34;13.20;99.90
19348;DHT22;9810;52.480;9.806;2023-08-08T02:10:02;13.10;99.90
19348;DHT22;9810;52.480;9.806;2023-08-08T02:12:29;13.00;99.90
19348;DHT22;9810;52.480;9.806;2023-08-08T02:14:56;13.00;99.90
19348;DHT22;9810;52.480;9.806;2023-08-08T02:17:24;13.20;99.90
19348;DHT22;9810;52.480;9.806;2023-08-08T02:19:51;13.10;99.90
19348;DHT22;9810;52.480;9.806;2023-08-08T02:22:18;13.00;99.90
19348;DHT22;9810;52.480;9.806;2023-08-08T02:24:45;13.20;99.90
19348;DHT22;9810;52.480;9.806;2023-08-08T02:27:12;13.30;99.90
19348;DHT22;9810;52.480;9.806;2023-08-08T02:29:39;13.40;99.90
19348;DHT22;9810;52.480;9.806;2023-08-08T02:32:07;13.50;99.90
19348;DHT22;9810;52.480;9.806;2023-08-08T02:34:35;13.30;99.90
19348;DHT22;9810;52.480;9.806;2023-08-08T02:37:04;13.50;99.90
19348;DHT22;9810;52.480;9.806;2023-08-08T02:39:31;13.30;99.90
19348;DHT22;9810;52.480;9.806;2023-08-08T02:41:57;13.30;99.90
19348;DHT22;9810;52.480;9.806;2023-08-08T02:44:24;13.50;99.90
19348;DHT22;9810;52.480;9.806;2023-08-08T02:46:51;13.50;99.90
19348;DHT22;9810;52.480;9.806;2023-08-08T02:49:18;13.30;99.90
19348;DHT22;9810;52.480;9.806;2023-08-08T02:51:47;13.50;99.90
19348;DHT22;9810;52.480;9.806;2023-08-08T02:54:13;13.40;99.90
19348;DHT22;9810;52.480;9.806;2023-08-08T02:56:40;13.40;99.90
19348;DHT22;9810;52.480;9.806;2023-08-08T02:59:07;13.50;99.90
19348;DHT22;9810;52.480;9.806;2023-08-08T03:01:35;13.50;99.90
19348;DHT22;9810;52.480;9.806;2023-08-08T03:04:05;13.60;99.90
19348;DHT22;9810;52.480;9.806;2023-08-08T03:06:32;13.40;99.90
19348;DHT22;9810;52.480;9.806;2023-08-08T03:09:00;13.50;99.90
19348;DHT22;9810;52.480;9.806;2023-08-08T03:11:27;13.60;99.90
19348;DHT22;9810;52.480;9.806;2023-08-08T03:13:54;13.60;99.90
19348;DHT22;9810;52.480;9.806;2023-08-08T03:16:21;13.70;99.90
19348;DHT22;9810;52.480;9.806;2023-08-08T03:18:48;13.60;99.90
19348;DHT22;9810;52.480;9.806;2023-08-08T03:21:15;13.50;99.90
19348;DHT22;9810;52.480;9.806;2023-08-08T03:23:43;13.50;99.90
19348;DHT22;9810;52.480;9.806;2023-08-08T03:26:14;13.60;99.90
19348;DHT22;9810;52.480;9.806;2023-08-08T03:28:41;13.60;99.90
19348;DHT22;9810;52.480;9.806;2023-08-08T03:31:08;13.60;99.90
19348;DHT22;9810;52.480;9.806;2023-08-08T03:33:34;13.70;99.90
19348;DHT22;9810;52.480;9.806;2023-08-08T03:36:01;13.60;99.90
19348;DHT22;9810;52.480;9.806;2023-08-08T03:38:28;13.70;99.90
19348;DHT22;9810;52.480;9.806;2023-08-08T03:40:55;13.80;99.90
19348;DHT22;9810;52.480;9.806;2023-08-08T03:43:24;13.80;99.90
19348;DHT22;9810;52.480;9.806;2023-08-08T03:45:51;13.90;99.90
19348;DHT22;9810;52.480;9.806;2023-08-08T03:48:18;13.90;99.90
19348;DHT22;9810;52.480;9.806;2023-08-08T03:50:45;13.90;99.90
19348;DHT22;9810;52.480;9.806;2023-08-08T03:53:12;14.00;99.90
19348;DHT22;9810;52.480;9.806;2023-08-08T03:55:39;14.00;99.90
19348;DHT22;9810;52.480;9.806;2023-08-08T03:58:06;14.00;99.90
19348;DHT22;9810;52.480;9.806;2023-08-08T04:00:34;13.90;99.90
19348;DHT22;9810;52.480;9.806;2023-08-08T04:03:01;13.90;99.90
19348;DHT22;9810;52.480;9.806;2023-08-08T04:05:28;14.00;99.90
19348;DHT22;9810;52.480;9.806;2023-08-08T04:07:55;14.10;99.90
19348;DHT22;9810;52.480;9.806;2023-08-08T04:10:22;14.10;99.90
19348;DHT22;9810;52.480;9.806;2023-08-08T04:12:49;14.00;99.90
19348;DHT22;9810;52.480;9.806;2023-08-08T04:15:16;14.00;99.90
19348;DHT22;9810;52.480;9.806;2023-08-08T04:17:45;14.00;99.90
19348;DHT22;9810;52.480;9.806;2023-08-08T04:20:12;14.00;99.90
19348;DHT22;9810;52.480;9.806;2023-08-08T04:22:40;14.00;99.90
19348;DHT22;9810;52.480;9.806;2023-08-08T04:25:07;14.00;99.90
19348;DHT22;9810;52.480;9.806;2023-08-08T04:27:34;14.10;99.90
19348;DHT22;9810;52.480;9.806;2023-08-08T04:30:01;14.10;99.90
19348;DHT22;9810;52.480;9.806;2023-08-08T04:32:29;14.00;99.90
19348;DHT22;9810;52.480;9.806;2023-08-08T04:34:58;14.00;99.90
19348;DHT22;9810;52.480;9.806;2023-08-08T04:37:25;14.20;99.90
19348;DHT22;9810;52.480;9.806;2023-08-08T04:39:52;14.10;99.90
19348;DHT22;9810;52.480;9.806;2023-08-08T04:42:19;14.10;99.90
19348;DHT22;9810;52.480;9.806;2023-08-08T04:44:46;14.10;99.90
19348;DHT22;9810;52.480;9.806;2023-08-08T04:47:13;14.20;99.90
19348;DHT22;9810;52.480;9.806;2023-08-08T04:49:40;14.20;99.90
19348;DHT22;9810;52.480;9.806;2023-08-08T04:52:09;14.10;99.90
19348;DHT22;9810;52.480;9.806;2023-08-08T04:54:36;14.00;99.90
19348;DHT22;9810;52.480;9.806;2023-08-08T04:57:03;14.20;99.90
19348;DHT22;9810;52.480;9.806;2023-08-08T04:59:30;14.20;99.90
19348;DHT22;9810;52.480;9.806;2023-08-08T05:01:57;14.30;99.90
19348;DHT22;9810;52.480;9.806;2023-08-08T05:04:24;14.20;99.90
19348;DHT22;9810;52.480;9.806;2023-08-08T05:06:51;14.10;99.90
19348;DHT22;9810;52.480;9.806;2023-08-08T05:09:19;14.30;99.90
19348;DHT22;9810;52.480;9.806;2023-08-08T05:11:48;14.20;99.90
19348;DHT22;9810;52.480;9.806;2023-08-08T05:14:15;14.20;99.90
19348;DHT22;9810;52.480;9.806;2023-08-08T05:16:42;14.40;99.90
19348;DHT22;9810;52.480;9.806;2023-08-08T05:19:09;14.40;99.90
19348;DHT22;9810;52.480;9.806;2023-08-08T05:21:36;14.40;99.90
19348;DHT22;9810;52.480;9.806;2023-08-08T05:24:03;14.30;99.90
19348;DHT22;9810;52.480;9.806;2023-08-08T05:26:32;14.40;99.90
19348;DHT22;9810;52.480;9.806;2023-08-08T05:28:59;14.40;99.90
19348;DHT22;9810;52.480;9.806;2023-08-08T05:31:26;14.50;99.90
19348;DHT22;9810;52.480;9.806;2023-08-08T05:33:53;14.60;99.90
19348;DHT22;9810;52.480;9.806;2023-08-08T05:36:20;14.60;99.90
19348;DHT22;9810;52.480;9.806;2023-08-08T05:38:47;14.60;99.90
19348;DHT22;9810;52.480;9.806;2023-08-08T05:41:14;14.80;99.90
19348;DHT22;9810;52.480;9.806;2023-08-08T05:43:42;14.70;99.90
19348;DHT22;9810;52.480;9.806;2023-08-08T05:46:09;14.70;99.90
19348;DHT22;9810;52.480;9.806;2023-08-08T05:48:36;14.80;99.90
19348;DHT22;9810;52.480;9.806;2023-08-08T05:51:03;14.90;99.90
19348;DHT22;9810;52.480;9.806;2023-08-08T05:53:30;15.00;99.90
19348;DHT22;9810;52.480;9.806;2023-08-08T05:55:58;15.10;99.90
19348;DHT22;9810;52.480;9.806;2023-08-08T05:58:24;15.10;99.90
19348;DHT22;9810;52.480;9.806;2023-08-08T06:00:53;15.10;99.90
19348;DHT22;9810;52.480;9.806;2023-08-08T06:03:20;15.00;99.90
19348;DHT22;9810;52.480;9.806;2023-08-08T06:05:47;15.10;99.90
19348;DHT22;9810;52.480;9.806;2023-08-08T06:08:14;15.10;99.90
19348;DHT22;9810;52.480;9.806;2023-08-08T06:10:42;15.00;99.90
19348;DHT22;9810;52.480;9.806;2023-08-08T06:13:09;15.10;99.90
19348;DHT22;9810;52.480;9.806;2023-08-08T06:15:36;15.20;99.90
19348;DHT22;9810;52.480;9.806;2023-08-08T06:18:05;15.10;99.90
19348;DHT22;9810;52.480;9.806;2023-08-08T06:20:32;15.40;99.90
19348;DHT22;9810;52.480;9.806;2023-08-08T06:22:59;15.50;99.90
19348;DHT22;9810;52.480;9.806;2023-08-08T06:25:25;15.70;99.90
19348;DHT22;9810;52.480;9.806;2023-08-08T06:27:53;15.70;99.90
19348;DHT22;9810;52.480;9.806;2023-08-08T06:30:20;15.80;99.90
19348;DHT22;9810;52.480;9.806;2023-08-08T06:32:47;15.60;99.90
19348;DHT22;9810;52.480;9.806;2023-08-08T06:35:16;15.90;99.90
19348;DHT22;9810;52.480;9.806;2023-08-08T06:37:43;16.00;99.90
19348;DHT22;9810;52.480;9.806;2023-08-08T06:40:11;16.20;99.90
19348;DHT22;9810;52.480;9.806;2023-08-08T06:42:38;16.30;99.90
19348;DHT22;9810;52.480;9.806;2023-08-08T06:45:06;16.40;99.90
19348;DHT22;9810;52.480;9.806;2023-08-08T06:47:35;16.30;99.90
19348;DHT22;9810;52.480;9.806;2023-08-08T06:50:02;16.30;99.90
19348;DHT22;9810;52.480;9.806;2023-08-08T06:52:32;16.30;99.90
19348;DHT22;9810;52.480;9.806;2023-08-08T06:54:59;16.50;99.90
19348;DHT22;9810;52.480;9.806;2023-08-08T06:57:26;16.40;99.90
19348;DHT22;9810;52.480;9.806;2023-08-08T06:59:53;16.60;99.90
19348;DHT22;9810;52.480;9.806;2023-08-08T07:02:20;16.50;99.90
19348;DHT22;9810;52.480;9.806;2023-08-08T07:04:47;16.60;99.90
19348;DHT22;9810;52.480;9.806;2023-08-08T07:07:14;16.60;99.90
19348;DHT22;9810;52.480;9.806;2023-08-08T07:09:42;16.70;99.90
19348;DHT22;9810;52.480;9.806;2023-08-08T07:12:09;16.50;99.90
19348;DHT22;9810;52.480;9.806;2023-08-08T07:14:36;16.40;99.90
19348;DHT22;9810;52.480;9.806;2023-08-08T07:17:03;16.30;99.90
19348;DHT22;9810;52.480;9.806;2023-08-08T07:19:30;16.80;99.90
19348;DHT22;9810;52.480;9.806;2023-08-08T07:21:57;17.00;99.90
19348;DHT22;9810;52.480;9.806;2023-08-08T07:24:23;17.10;99.90
19348;DHT22;9810;52.480;9.806;2023-08-08T07:26:55;16.90;99.90
19348;DHT22;9810;52.480;9.806;2023-08-08T07:29:22;17.00;99.90
19348;DHT22;9810;52.480;9.806;2023-08-08T07:31:51;17.00;99.90
19348;DHT22;9810;52.480;9.806;2023-08-08T07:34:19;17.00;99.90
19348;DHT22;9810;52.480;9.806;2023-08-08T07:36:46;17.00;99.90
19348;DHT22;9810;52.480;9.806;2023-08-08T07:39:12;17.10;99.90
19348;DHT22;9810;52.480;9.806;2023-08-08T07:41:40;16.90;99.90
19348;DHT22;9810;52.480;9.806;2023-08-08T07:44:09;17.30;99.90
19348;DHT22;9810;52.480;9.806;2023-08-08T07:46:35;17.50;99.90
19348;DHT22;9810;52.480;9.806;2023-08-08T07:49:02;17.80;99.90
19348;DHT22;9810;52.480;9.806;2023-08-08T07:51:30;18.20;99.90
19348;DHT22;9810;52.480;9.806;2023-08-08T07:53:58;18.30;99.90
19348;DHT22;9810;52.480;9.806;2023-08-08T07:56:26;18.60;99.90
19348;DHT22;9810;52.480;9.806;2023-08-08T07:58:52;18.50;99.90
19348;DHT22;9810;52.480;9.806;2023-08-08T08:01:21;18.10;99.90
19348;DHT22;9810;52.480;9.806;2023-08-08T08:03:48;17.60;99.90
19348;DHT22;9810;52.480;9.806;2023-08-08T08:06:15;17.50;99.90
19348;DHT22;9810;52.480;9.806;2023-08-08T08:08:42;17.30;99.90
19348;DHT22;9810;52.480;9.806;2023-08-08T08:11:09;17.00;99.90
19348;DHT22;9810;52.480;9.806;2023-08-08T08:13:36;16.90;99.90
19348;DHT22;9810;52.480;9.806;2023-08-08T08:16:03;16.80;99.90
19348;DHT22;9810;52.480;9.806;2023-08-08T08:18:32;16.80;99.90
19348;DHT22;9810;52.480;9.806;2023-08-08T08:20:59;17.00;99.90
19348;DHT22;9810;52.480;9.806;2023-08-08T08:23:26;17.00;99.90
19348;DHT22;9810;52.480;9.806;2023-08-08T08:25:53;17.10;99.90
19348;DHT22;9810;52.480;9.806;2023-08-08T08:28:21;17.00;99.90
19348;DHT22;9810;52.480;9.806;2023-08-08T08:30:48;17.00;99.90
19348;DHT22;9810;52.480;9.806;2023-08-08T08:33:15;17.10;99.90
19348;DHT22;9810;52.480;9.806;2023-08-08T08:35:43;17.20;99.90
19348;DHT22;9810;52.480;9.806;2023-08-08T08:38:11;17.20;99.90
19348;DHT22;9810;52.480;9.806;2023-08-08T08:40:40;17.20;99.90
19348;DHT22;9810;52.480;9.806;2023-08-08T08:43:09;17.20;99.90
19348;DHT22;9810;52.480;9.806;2023-08-08T08:45:38;17.10;99.90
19348;DHT22;9810;52.480;9.806;2023-08-08T08:48:08;16.80;99.90
19348;DHT22;9810;52.480;9.806;2023-08-08T08:50:36;16.90;99.90
19348;DHT22;9810;52.480;9.806;2023-08-08T08:53:07;16.90;99.90
19348;DHT22;9810;52.480;9.806;2023-08-08T08:55:34;16.90;99.90
19348;DHT22;9810;52.480;9.806;2023-08-08T08:58:01;16.90;99.90
19348;DHT22;9810;52.480;9.806;2023-08-08T09:00:29;16.90;99.90
19348;DHT22;9810;52.480;9.806;2023-08-08T09:02:57;16.70;99.90
19348;DHT22;9810;52.480;9.806;2023-08-08T09:05:25;16.50;99.90
19348;DHT22;9810;52.480;9.806;2023-08-08T09:07:52;16.70;99.90
19348;DHT22;9810;52.480;9.806;2023-08-08T09:10:20;16.70;99.90
19348;DHT22;9810;52.480;9.806;2023-08-08T09:12:47;16.70;99.90
19348;DHT22;9810;52.480;9.806;2023-08-08T09:15:14;17.00;99.90
19348;DHT22;9810;52.480;9.806;2023-08-08T09:17:42;17.30;99.90
19348;DHT22;9810;52.480;9.806;2023-08-08T09:20:11;17.50;99.90
19348;DHT22;9810;52.480;9.806;2023-08-08T09:22:39;17.80;99.90
19348;DHT22;9810;52.480;9.806;2023-08-08T09:25:07;18.40;99.90
19348;DHT22;9810;52.480;9.806;2023-08-08T09:27:36;18.60;99.90
19348;DHT22;9810;52.480;9.806;2023-08-08T09:30:04;18.70;99.90
19348;DHT22;9810;52.480;9.806;2023-08-08T09:32:32;19.40;99.90
19348;DHT22;9810;52.480;9.806;2023-08-08T09:34:59;18.70;99.90
19348;DHT22;9810;52.480;9.806;2023-08-08T09:37:27;18.20;99.90
19348;DHT22;9810;52.480;9.806;2023-08-08T09:39:57;17.60;99.90
19348;DHT22;9810;52.480;9.806;2023-08-08T09:42:26;17.30;99.90
19348;DHT22;9810;52.480;9.806;2023-08-08T09:44:56;17.20;99.90
19348;DHT22;9810;52.480;9.806;2023-08-08T09:47:24;16.40;99.90
19348;DHT22;9810;52.480;9.806;2023-08-08T09:49:58;15.70;99.90
19348;DHT22;9810;52.480;9.806;2023-08-08T09:52:27;15.50;99.90
19348;DHT22;9810;52.480;9.806;2023-08-08T09:54:55;15.60;99.90
19348;DHT22;9810;52.480;9.806;2023-08-08T09:57:23;15.50;99.90
19348;DHT22;9810;52.480;9.806;2023-08-08T09:59:51;15.60;99.90
19348;DHT22;9810;52.480;9.806;2023-08-08T10:02:20;15.60;99.90
19348;DHT22;9810;52.480;9.806;2023-08-08T10:04:48;15.40;99.90
19348;DHT22;9810;52.480;9.806;2023-08-08T10:07:15;15.60;99.90
19348;DHT22;9810;52.480;9.806;2023-08-08T10:09:42;15.70;99.90
19348;DHT22;9810;52.480;9.806;2023-08-08T10:12:11;15.60;99.90
19348;DHT22;9810;52.480;9.806;2023-08-08T10:14:42;15.80;99.90
19348;DHT22;9810;52.480;9.806;2023-08-08T10:17:13;15.80;99.90
19348;DHT22;9810;52.480;9.806;2023-08-08T10:19:50;16.30;99.90
19348;DHT22;9810;52.480;9.806;2023-08-08T10:22:20;17.10;99.90
19348;DHT22;9810;52.480;9.806;2023-08-08T10:24:51;17.10;99.90
19348;DHT22;9810;52.480;9.806;2023-08-08T10:27:28;17.10;99.90
19348;DHT22;9810;52.480;9.806;2023-08-08T10:30:01;17.30;99.90
19348;DHT22;9810;52.480;9.806;2023-08-08T10:32:38;18.20;99.90
19348;DHT22;9810;52.480;9.806;2023-08-08T10:35:08;18.70;99.90
19348;DHT22;9810;52.480;9.806;2023-08-08T10:37:36;19.00;99.90
19348;DHT22;9810;52.480;9.806;2023-08-08T10:40:04;19.00;99.90
19348;DHT22;9810;52.480;9.806;2023-08-08T10:42:40;18.90;99.90
19348;DHT22;9810;52.480;9.806;2023-08-08T10:45:10;18.90;99.90
19348;DHT22;9810;52.480;9.806;2023-08-08T10:47:38;18.40;99.90
19348;DHT22;9810;52.480;9.806;2023-08-08T10:50:09;18.10;99.90
19348;DHT22;9810;52.480;9.806;2023-08-08T10:52:51;17.70;99.90
19348;DHT22;9810;52.480;9.806;2023-08-08T10:55:19;18.10;99.90
19348;DHT22;9810;52.480;9.806;2023-08-08T10:57:53;18.70;99.90
19348;DHT22;9810;52.480;9.806;2023-08-08T11:00:24;18.70;99.90
19348;DHT22;9810;52.480;9.806;2023-08-08T11:02:52;18.50;99.90
19348;DHT22;9810;52.480;9.806;2023-08-08T11:05:21;18.50;99.90
19348;DHT22;9810;52.480;9.806;2023-08-08T11:07:49;18.50;99.90
19348;DHT22;9810;52.480;9.806;2023-08-08T11:10:16;18.50;99.90
19348;DHT22;9810;52.480;9.806;2023-08-08T11:12:53;18.80;99.90
19348;DHT22;9810;52.480;9.806;2023-08-08T11:15:20;18.70;99.90
19348;DHT22;9810;52.480;9.806;2023-08-08T11:17:47;19.00;99.90
19348;DHT22;9810;52.480;9.806;2023-08-08T11:20:14;19.10;99.90
19348;DHT22;9810;52.480;9.806;2023-08-08T11:22:43;19.20;99.90
19348;DHT22;9810;52.480;9.806;2023-08-08T11:25:10;19.50;99.90
19348;DHT22;9810;52.480;9.806;2023-08-08T11:27:37;19.30;99.90
19348;DHT22;9810;52.480;9.806;2023-08-08T11:30:05;19.20;99.90
19348;DHT22;9810;52.480;9.806;2023-08-08T11:32:33;19.40;99.90
19348;DHT22;9810;52.480;9.806;2023-08-08T11:35:01;19.30;99.90
19348;DHT22;9810;52.480;9.806;2023-08-08T11:37:28;19.40;99.90
19348;DHT22;9810;52.480;9.806;2023-08-08T11:39:57;19.40;99.90
19348;DHT22;9810;52.480;9.806;2023-08-08T11:42:24;19.40;99.90
19348;DHT22;9810;52.480;9.806;2023-08-08T11:44:52;19.10;99.90
19348;DHT22;9810;52.480;9.806;2023-08-08T11:47:24;18.90;99.90
19348;DHT22;9810;52.480;9.806;2023-08-08T11:49:51;18.70;99.90
19348;DHT22;9810;52.480;9.806;2023-08-08T11:52:18;18.50;99.90
19348;DHT22;9810;52.480;9.806;2023-08-08T11:54:51;18.40;99.90
19348;DHT22;9810;52.480;9.806;2023-08-08T11:57:19;18.20;99.90
19348;DHT22;9810;52.480;9.806;2023-08-08T11:59:48;18.40;99.90
19348;DHT22;9810;52.480;9.806;2023-08-08T12:02:16;18.60;99.90
19348;DHT22;9810;52.480;9.806;2023-08-08T12:04:44;19.30;99.90
19348;DHT22;9810;52.480;9.806;2023-08-08T12:07:11;19.60;99.90
19348;DHT22;9810;52.480;9.806;2023-08-08T12:09:39;19.50;99.90
19348;DHT22;9810;52.480;9.806;2023-08-08T12:12:06;19.40;99.90
19348;DHT22;9810;52.480;9.806;2023-08-08T12:14:38;19.10;99.90
19348;DHT22;9810;52.480;9.806;2023-08-08T12:17:05;18.70;99.90
19348;DHT22;9810;52.480;9.806;2023-08-08T12:19:32;18.10;99.90
19348;DHT22;9810;52.480;9.806;2023-08-08T12:21:59;17.90;99.90
19348;DHT22;9810;52.480;9.806;2023-08-08T12:24:26;17.90;99.90
19348;DHT22;9810;52.480;9.806;2023-08-08T12:26:53;18.10;99.90
19348;DHT22;9810;52.480;9.806;2023-08-08T12:29:20;18.20;99.90
19348;DHT22;9810;52.480;9.806;2023-08-08T12:31:49;18.50;99.90
19348;DHT22;9810;52.480;9.806;2023-08-08T12:34:15;18.70;99.90
19348;DHT22;9810;52.480;9.806;2023-08-08T12:36:42;18.60;99.90
19348;DHT22;9810;52.480;9.806;2023-08-08T12:39:09;18.40;99.90
19348;DHT22;9810;52.480;9.806;2023-08-08T12:41:37;18.30;99.90
19348;DHT22;9810;52.480;9.806;2023-08-08T12:44:04;18.00;99.90
19348;DHT22;9810;52.480;9.806;2023-08-08T12:46:32;17.90;99.90
19348;DHT22;9810;52.480;9.806;2023-08-08T12:49:01;18.20;99.90
19348;DHT22;9810;52.480;9.806;2023-08-08T12:51:28;19.10;99.90
19348;DHT22;9810;52.480;9.806;2023-08-08T12:53:55;19.30;99.90
19348;DHT22;9810;52.480;9.806;2023-08-08T12:56:22;19.60;99.90
19348;DHT22;9810;52.480;9.806;2023-08-08T12:58:49;19.90;99.90
19348;DHT22;9810;52.480;9.806;2023-08-08T13:01:16;19.30;99.90
19348;DHT22;9810;52.480;9.806;2023-08-08T13:03:42;18.90;99.90
19348;DHT22;9810;52.480;9.806;2023-08-08T13:06:11;18.80;99.90
19348;DHT22;9810;52.480;9.806;2023-08-08T13:08:39;18.30;99.90
19348;DHT22;9810;52.480;9.806;2023-08-08T13:11:06;17.50;99.90
19348;DHT22;9810;52.480;9.806;2023-08-08T13:13:33;16.60;99.90
19348;DHT22;9810;52.480;9.806;2023-08-08T13:16:00;16.30;99.90
19348;DHT22;9810;52.480;9.806;2023-08-08T13:18:27;16.10;99.90
19348;DHT22;9810;52.480;9.806;2023-08-08T13:20:54;16.00;99.90
19348;DHT22;9810;52.480;9.806;2023-08-08T13:23:22;15.80;99.90
19348;DHT22;9810;52.480;9.806;2023-08-08T13:25:50;16.00;99.90
19348;DHT22;9810;52.480;9.806;2023-08-08T13:28:17;16.00;99.90
19348;DHT22;9810;52.480;9.806;2023-08-08T13:30:44;16.20;99.90
19348;DHT22;9810;52.480;9.806;2023-08-08T13:33:11;16.00;99.90
19348;DHT22;9810;52.480;9.806;2023-08-08T13:35:39;16.00;99.90
19348;DHT22;9810;52.480;9.806;2023-08-08T13:38:06;16.20;99.90
19348;DHT22;9810;52.480;9.806;2023-08-08T13:40:35;16.70;99.90
19348;DHT22;9810;52.480;9.806;2023-08-08T13:43:02;16.80;99.90
19348;DHT22;9810;52.480;9.806;2023-08-08T13:45:29;17.10;99.90
19348;DHT22;9810;52.480;9.806;2023-08-08T13:47:56;17.50;99.90
19348;DHT22;9810;52.480;9.806;2023-08-08T13:50:22;17.80;99.90
19348;DHT22;9810;52.480;9.806;2023-08-08T13:52:49;17.70;99.90
19348;DHT22;9810;52.480;9.806;2023-08-08T13:55:18;17.50;99.90
19348;DHT22;9810;52.480;9.806;2023-08-08T13:57:47;17.60;99.90
19348;DHT22;9810;52.480;9.806;2023-08-08T14:00:14;17.50;99.90
19348;DHT22;9810;52.480;9.806;2023-08-08T14:02:42;17.30;99.90
19348;DHT22;9810;52.480;9.806;2023-08-08T14:05:09;17.10;99.90
19348;DHT22;9810;52.480;9.806;2023-08-08T14:07:36;16.80;99.90
19348;DHT22;9810;52.480;9.806;2023-08-08T14:10:04;16.40;99.90
19348;DHT22;9810;52.480;9.806;2023-08-08T14:12:31;16.00;99.90
19348;DHT22;9810;52.480;9.806;2023-08-08T14:14:59;15.90;99.90
19348;DHT22;9810;52.480;9.806;2023-08-08T14:17:26;15.80;99.90
19348;DHT22;9810;52.480;9.806;2023-08-08T14:19:53;15.90;99.90
19348;DHT22;9810;52.480;9.806;2023-08-08T14:22:20;16.00;99.90
19348;DHT22;9810;52.480;9.806;2023-08-08T14:24:47;16.20;99.90
19348;DHT22;9810;52.480;9.806;2023-08-08T14:27:14;16.40;99.90
19348;DHT22;9810;52.480;9.806;2023-08-08T14:29:41;16.40;99.90
19348;DHT22;9810;52.480;9.806;2023-08-08T14:32:09;16.40;99.90
19348;DHT22;9810;52.480;9.806;2023-08-08T14:34:37;16.70;99.90
19348;DHT22;9810;52.480;9.806;2023-08-08T14:37:05;17.20;99.90
19348;DHT22;9810;52.480;9.806;2023-08-08T14:39:32;17.00;99.90
19348;DHT22;9810;52.480;9.806;2023-08-08T14:41:59;17.60;99.90
19348;DHT22;9810;52.480;9.806;2023-08-08T14:44:26;17.60;99.90
19348;DHT22;9810;52.480;9.806;2023-08-08T14:46:53;17.10;99.90
19348;DHT22;9810;52.480;9.806;2023-08-08T14:49:22;17.00;99.90
19348;DHT22;9810;52.480;9.806;2023-08-08T14:51:51;16.80;99.90
19348;DHT22;9810;52.480;9.806;2023-08-08T14:54:18;16.90;99.90
19348;DHT22;9810;52.480;9.806;2023-08-08T14:56:45;16.00;99.90
19348;DHT22;9810;52.480;9.806;2023-08-08T14:59:12;15.80;99.90
19348;DHT22;9810;52.480;9.806;2023-08-08T15:01:38;15.70;99.90
19348;DHT22;9810;52.480;9.806;2023-08-08T15:04:05;15.60;99.90
19348;DHT22;9810;52.480;9.806;2023-08-08T15:06:36;15.50;99.90
19348;DHT22;9810;52.480;9.806;2023-08-08T15:09:03;15.60;99.90
19348;DHT22;9810;52.480;9.806;2023-08-08T15:11:30;15.80;99.90
19348;DHT22;9810;52.480;9.806;2023-08-08T15:13:57;15.90;99.90
19348;DHT22;9810;52.480;9.806;2023-08-08T15:16:24;16.00;99.90
19348;DHT22;9810;52.480;9.806;2023-08-08T15:18:51;16.20;99.90
19348;DHT22;9810;52.480;9.806;2023-08-08T15:21:18;16.20;99.90
19348;DHT22;9810;52.480;9.806;2023-08-08T15:23:47;16.30;99.90
19348;DHT22;9810;52.480;9.806;2023-08-08T15:26:14;16.40;99.90
19348;DHT22;9810;52.480;9.806;2023-08-08T15:28:44;16.50;99.90
19348;DHT22;9810;52.480;9.806;2023-08-08T15:31:11;16.50;99.90
19348;DHT22;9810;52.480;9.806;2023-08-08T15:33:38;16.50;99.90
19348;DHT22;9810;52.480;9.806;2023-08-08T15:36:05;16.70;99.90
19348;DHT22;9810;52.480;9.806;2023-08-08T15:38:32;16.60;99.90
19348;DHT22;9810;52.480;9.806;2023-08-08T15:41:01;16.60;99.90
19348;DHT22;9810;52.480;9.806;2023-08-08T15:43:30;16.90;99.90
19348;DHT22;9810;52.480;9.806;2023-08-08T15:45:57;17.10;99.90
19348;DHT22;9810;52.480;9.806;2023-08-08T15:48:24;17.30;99.90